createdAt,value
2023-05-19T00:00:34.692Z,643.2308
2023-05-19T00:01:35.777Z,645.9231
2023-05-19T00:02:37.289Z,654.4615
2023-05-19T00:03:38.728Z,654.0769
2023-05-19T00:04:40.141Z,651.6154
2023-05-19T00:05:41.514Z,655.9231
2023-05-19T00:06:42.959Z,652.6154
2023-05-19T00:07:44.355Z,649.6923
2023-05-19T00:08:45.886Z,652.3846
2023-05-19T00:09:47.269Z,641.2308
2023-05-19T00:10:48.643Z,651.6923
2023-05-19T00:11:50.032Z,656.1539
2023-05-19T00:12:53.725Z,654.3846
2023-05-19T00:13:52.906Z,655.0769
2023-05-19T00:14:54.417Z,655.1539
2023-05-19T00:15:55.773Z,646.0000
2023-05-19T00:16:57.286Z,650.1539
2023-05-19T00:17:58.724Z,649.3846
2023-05-19T00:19:00.164Z,645.4615
2023-05-19T00:20:01.416Z,650.6154
2023-05-19T00:21:02.890Z,650.0000
2023-05-19T00:22:04.281Z,660.3077
2023-05-19T00:23:05.738Z,655.2308
2023-05-19T00:24:07.219Z,646.7692
2023-05-19T00:25:08.644Z,657.5385
2023-05-19T00:26:09.984Z,657.0769
2023-05-19T00:27:11.396Z,652.2308
2023-05-19T00:28:12.741Z,648.3846
2023-05-19T00:29:14.307Z,654.4615
2023-05-19T00:30:15.680Z,659.1539
2023-05-19T00:31:17.215Z,643.7692
2023-05-19T00:32:18.650Z,654.4615
2023-05-19T00:33:19.961Z,635.7692
2023-05-19T00:34:21.426Z,645.2308
2023-05-19T00:35:22.856Z,636.3077
2023-05-19T00:36:24.146Z,635.0769
2023-05-19T00:37:25.673Z,653.5385
2023-05-19T00:38:27.170Z,652.5385
2023-05-19T00:39:28.512Z,650.6923
2023-05-19T00:40:30.106Z,652.8461
2023-05-19T00:41:31.420Z,643.0769
2023-05-19T00:42:32.792Z,655.3077
2023-05-19T00:43:34.270Z,649.6154
2023-05-19T00:44:35.604Z,646.3077
2023-05-19T00:45:37.151Z,648.9231
2023-05-19T00:46:38.574Z,650.3077
2023-05-19T00:47:39.968Z,649.8461
2023-05-19T00:48:41.342Z,649.7692
2023-05-19T00:49:42.796Z,641.8461
2023-05-19T00:50:44.220Z,650.6923
2023-05-19T00:51:45.586Z,643.6923
2023-05-19T00:52:46.988Z,649.6154
2023-05-19T00:53:48.587Z,645.3077
2023-05-19T00:54:49.886Z,649.3077
2023-05-19T00:55:51.389Z,659.0769
2023-05-19T00:56:52.796Z,648.6154
2023-05-19T00:57:54.201Z,650.1539
2023-05-19T00:58:55.654Z,651.5385
2023-05-19T00:59:57.064Z,647.0000
2023-05-19T01:00:58.601Z,647.0769
2023-05-19T01:01:59.924Z,648.5385
2023-05-19T01:03:01.371Z,639.1539
2023-05-19T01:04:02.868Z,652.8461
2023-05-19T01:05:04.174Z,643.9231
2023-05-19T01:06:05.542Z,649.6923
2023-05-19T01:07:07.013Z,651.9231
2023-05-19T01:08:08.468Z,653.3077
2023-05-19T01:09:09.847Z,641.6923
2023-05-19T01:10:11.250Z,647.1539
2023-05-19T01:11:12.723Z,644.9231
2023-05-19T01:12:14.122Z,637.1539
2023-05-19T01:13:15.621Z,641.2308
2023-05-19T01:14:16.880Z,644.6923
2023-05-19T01:15:18.419Z,637.4615
2023-05-19T01:16:19.888Z,643.1539
2023-05-19T01:17:21.250Z,638.6923
2023-05-19T01:18:22.643Z,641.1539
2023-05-19T01:19:24.137Z,642.7692
2023-05-19T01:20:25.485Z,652.3077
2023-05-19T01:21:27.028Z,638.4615
2023-05-19T01:22:28.357Z,642.6154
2023-05-19T01:23:29.793Z,646.1539
2023-05-19T01:24:31.195Z,648.0000
2023-05-19T01:25:32.656Z,643.3846
2023-05-19T01:26:34.059Z,641.3077
2023-05-19T01:27:50.302Z,648.4615
2023-05-19T01:28:36.895Z,636.7000
2023-05-19T01:29:38.291Z,637.2308
2023-05-19T01:30:39.810Z,642.6154
2023-05-19T01:31:41.310Z,636.5385
2023-05-19T01:32:42.651Z,641.2308
2023-05-19T01:33:44.020Z,639.4615
2023-05-19T01:34:45.480Z,641.2308
2023-05-19T01:35:46.814Z,637.3077
2023-05-19T01:36:48.298Z,639.2308
2023-05-19T01:37:49.690Z,627.0769
2023-05-19T01:38:51.195Z,646.7692
2023-05-19T01:39:52.605Z,645.8461
2023-05-19T01:40:54.043Z,628.3846
2023-05-19T01:41:55.514Z,640.1539
2023-05-19T01:42:57.866Z,649.5385
2023-05-19T01:43:58.268Z,644.3077
2023-05-19T01:44:59.643Z,647.0769
2023-05-19T01:46:01.149Z,645.4615
2023-05-19T01:47:02.593Z,646.0000
2023-05-19T01:48:04.007Z,646.9231
2023-05-19T01:49:05.439Z,637.3846
2023-05-19T01:50:06.809Z,641.6154
2023-05-19T01:51:08.288Z,648.9231
2023-05-19T01:52:09.733Z,643.5385
2023-05-19T01:53:11.150Z,646.0769
2023-05-19T01:54:12.559Z,644.3077
2023-05-19T01:55:14.061Z,650.9231
2023-05-19T01:56:15.378Z,637.3077
2023-05-19T01:57:16.849Z,643.0000
2023-05-19T01:58:18.203Z,647.6154
2023-05-19T01:59:19.643Z,646.1539
2023-05-19T02:00:21.406Z,642.9231
2023-05-19T02:01:22.470Z,642.3846
2023-05-19T02:02:24.014Z,645.0769
2023-05-19T02:03:25.397Z,639.9231
2023-05-19T02:04:26.917Z,633.0769
2023-05-19T02:05:28.209Z,640.6154
2023-05-19T02:06:29.623Z,644.1539
2023-05-19T02:07:30.983Z,648.6923
2023-05-19T02:08:32.474Z,642.3077
2023-05-19T02:09:33.918Z,646.1539
2023-05-19T02:10:35.338Z,649.0769
2023-05-19T02:11:36.721Z,647.2308
2023-05-19T02:12:38.266Z,644.7692
2023-05-19T02:13:39.564Z,645.6923
2023-05-19T02:14:41.045Z,649.8461
2023-05-19T02:15:42.539Z,648.7692
2023-05-19T02:16:43.821Z,650.9231
2023-05-19T02:17:45.366Z,640.3077
2023-05-19T02:18:46.714Z,637.4615
2023-05-19T02:19:48.171Z,639.6923
2023-05-19T02:20:49.548Z,643.9231
2023-05-19T02:21:50.990Z,637.4615
2023-05-19T02:22:52.375Z,633.4615
2023-05-19T02:23:53.869Z,640.0769
2023-05-19T02:24:55.288Z,633.9231
2023-05-19T02:25:56.800Z,635.8461
2023-05-19T02:26:58.083Z,635.2308
2023-05-19T02:27:59.679Z,634.2308
2023-05-19T02:29:01.097Z,634.3077
2023-05-19T02:30:02.530Z,631.3077
2023-05-19T02:31:03.921Z,635.0769
2023-05-19T02:32:05.494Z,628.9231
2023-05-19T02:33:06.856Z,644.9231
2023-05-19T02:34:08.207Z,644.8461
2023-05-19T02:35:09.649Z,644.1539
2023-05-19T02:36:11.009Z,639.0000
2023-05-19T02:37:12.456Z,640.0769
2023-05-19T02:38:13.911Z,640.0000
2023-05-19T02:39:15.260Z,639.3846
2023-05-19T02:40:16.640Z,648.6154
2023-05-19T02:41:18.107Z,641.2308
2023-05-19T02:42:19.486Z,631.8461
2023-05-19T02:43:21.033Z,636.0769
2023-05-19T02:44:22.468Z,641.8461
2023-05-19T02:45:23.805Z,624.3077
2023-05-19T02:46:25.309Z,630.7692
2023-05-19T02:47:26.712Z,635.3846
2023-05-19T02:48:28.281Z,629.3846
2023-05-19T02:49:29.559Z,635.6154
2023-05-19T02:50:31.215Z,629.2308
2023-05-19T02:51:32.456Z,632.0000
2023-05-19T02:52:33.910Z,643.1539
2023-05-19T02:53:35.286Z,633.4615
2023-05-19T02:54:36.685Z,633.5385
2023-05-19T02:55:38.112Z,641.4615
2023-05-19T02:56:39.578Z,638.9231
2023-05-19T02:57:41.017Z,633.4615
2023-05-19T02:58:42.480Z,633.9231
2023-05-19T02:59:43.868Z,634.1539
2023-05-19T03:00:45.313Z,634.2308
2023-05-19T03:01:46.722Z,646.6154
2023-05-19T03:02:48.216Z,632.3077
2023-05-19T03:03:49.676Z,619.6923
2023-05-19T03:04:51.010Z,634.5385
2023-05-19T03:05:52.471Z,636.8461
2023-05-19T03:06:53.826Z,641.4615
2023-05-19T03:07:55.322Z,633.1539
2023-05-19T03:08:57.266Z,630.3077
2023-05-19T03:09:58.141Z,639.6154
2023-05-19T03:10:59.553Z,634.4615
2023-05-19T03:12:00.993Z,624.5385
2023-05-19T03:13:02.404Z,632.5385
2023-05-19T03:14:03.874Z,629.0000
2023-05-19T03:15:05.252Z,634.0000
2023-05-19T03:16:06.782Z,635.4615
2023-05-19T03:17:08.328Z,634.3846
2023-05-19T03:18:09.629Z,640.3077
2023-05-19T03:19:11.023Z,629.0000
2023-05-19T03:20:12.534Z,631.5385
2023-05-19T03:21:13.792Z,625.3077
2023-05-19T03:22:15.236Z,634.5385
2023-05-19T03:23:16.629Z,636.0769
2023-05-19T03:24:18.250Z,632.0769
2023-05-19T03:25:19.443Z,631.0000
2023-05-19T03:26:20.953Z,631.5385
2023-05-19T03:27:22.379Z,630.4615
2023-05-19T03:28:23.794Z,626.6923
2023-05-19T03:29:25.262Z,635.9231
2023-05-19T03:30:26.695Z,630.3077
2023-05-19T03:31:28.066Z,621.0769
2023-05-19T03:32:29.590Z,623.3846
2023-05-19T03:33:31.084Z,625.2308
2023-05-19T03:34:32.377Z,627.4615
2023-05-19T03:35:33.764Z,629.9231
2023-05-19T03:36:35.192Z,634.0000
2023-05-19T03:37:36.612Z,633.9231
2023-05-19T03:38:37.969Z,634.6154
2023-05-19T03:39:40.385Z,620.6923
2023-05-19T03:40:40.951Z,617.6923
2023-05-19T03:41:42.268Z,625.3077
2023-05-19T03:42:43.751Z,630.0000
2023-05-19T03:43:45.140Z,631.6154
2023-05-19T03:44:46.610Z,633.5385
2023-05-19T03:45:48.053Z,639.0769
2023-05-19T03:46:49.488Z,639.5385
2023-05-19T03:47:50.902Z,633.3077
2023-05-19T03:48:52.381Z,624.3846
2023-05-19T03:49:53.736Z,626.8461
2023-05-19T03:50:55.270Z,628.0000
2023-05-19T03:51:56.537Z,632.6154
2023-05-19T03:52:58.100Z,627.6154
2023-05-19T03:53:59.403Z,633.9231
2023-05-19T03:55:00.901Z,626.8461
2023-05-19T03:56:02.283Z,627.7692
2023-05-19T03:57:03.722Z,628.8461
2023-05-19T03:58:05.037Z,630.4615
2023-05-19T03:59:06.542Z,617.3077
2023-05-19T04:00:08.007Z,623.2308
2023-05-19T04:01:09.433Z,623.8461
2023-05-19T04:02:10.929Z,621.3077
2023-05-19T04:03:12.270Z,625.6154
2023-05-19T04:04:13.726Z,627.5385
2023-05-19T04:05:15.141Z,629.6154
2023-05-19T04:06:16.404Z,622.5385
2023-05-19T04:07:17.930Z,626.6154
2023-05-19T04:08:19.334Z,627.9231
2023-05-19T04:09:20.718Z,633.6923
2023-05-19T04:10:22.305Z,633.6923
2023-05-19T04:11:23.572Z,631.7692
2023-05-19T04:12:25.079Z,635.1539
2023-05-19T04:13:26.395Z,636.6923
2023-05-19T04:14:27.896Z,641.3846
2023-05-19T04:15:29.366Z,637.6154
2023-05-19T04:16:30.929Z,645.1539
2023-05-19T04:17:32.223Z,642.6154
2023-05-19T04:18:33.593Z,642.8461
2023-05-19T04:19:34.981Z,642.4615
2023-05-19T04:20:36.455Z,641.6154
2023-05-19T04:21:37.820Z,644.0769
2023-05-19T04:22:39.270Z,648.3846
2023-05-19T04:23:40.777Z,647.0000
2023-05-19T04:24:42.166Z,641.8461
2023-05-19T04:25:43.534Z,647.5385
2023-05-19T04:26:45.014Z,641.0000
2023-05-19T04:27:46.453Z,641.1539
2023-05-19T04:28:47.860Z,637.9231
2023-05-19T04:29:49.208Z,642.0000
2023-05-19T04:30:50.742Z,653.3077
2023-05-19T04:31:52.062Z,650.7692
2023-05-19T04:32:53.572Z,651.6923
2023-05-19T04:33:55.010Z,645.3077
2023-05-19T04:34:56.365Z,650.0000
2023-05-19T04:35:57.836Z,644.9231
2023-05-19T04:36:59.284Z,649.8461
2023-05-19T04:38:00.577Z,649.9231
2023-05-19T04:39:02.115Z,656.3077
2023-05-19T04:40:03.568Z,656.4615
2023-05-19T04:41:04.990Z,655.3846
2023-05-19T04:42:06.299Z,657.5385
2023-05-19T04:43:07.887Z,656.1539
2023-05-19T04:44:09.337Z,669.8461
2023-05-19T04:45:10.516Z,655.4615
2023-05-19T04:46:13.414Z,667.7692
2023-05-19T04:47:13.593Z,662.1539
2023-05-19T04:48:14.984Z,657.0000
2023-05-19T04:49:16.293Z,659.2308
2023-05-19T04:50:17.750Z,663.8461
2023-05-19T04:51:19.177Z,662.1539
2023-05-19T04:52:20.624Z,664.9231
2023-05-19T04:53:22.018Z,662.0769
2023-05-19T04:54:23.348Z,674.3846
2023-05-19T04:55:24.800Z,670.4615
2023-05-19T04:56:26.331Z,662.9231
2023-05-19T04:57:27.708Z,658.8461
2023-05-19T04:58:29.118Z,664.1539
2023-05-19T04:59:30.558Z,671.0769
2023-05-19T05:00:32.111Z,675.0769
2023-05-19T05:01:33.362Z,668.1539
2023-05-19T05:02:34.930Z,670.9231
2023-05-19T05:03:36.211Z,677.6923
2023-05-19T05:04:37.717Z,674.6923
2023-05-19T05:05:39.025Z,682.6154
2023-05-19T05:06:40.546Z,673.8461
2023-05-19T05:07:41.937Z,672.5385
2023-05-19T05:08:43.313Z,684.7692
2023-05-19T05:09:44.796Z,677.3846
2023-05-19T05:10:46.175Z,682.7692
2023-05-19T05:11:47.590Z,679.7692
2023-05-19T05:12:49.005Z,680.3077
2023-05-19T05:13:50.404Z,680.7692
2023-05-19T05:14:51.796Z,672.0769
2023-05-19T05:15:53.166Z,687.2308
2023-05-19T05:16:54.761Z,676.8461
2023-05-19T05:17:56.207Z,675.2308
2023-05-19T05:18:57.640Z,676.6154
2023-05-19T05:19:59.016Z,682.0000
2023-05-19T05:21:00.347Z,675.3077
2023-05-19T05:22:01.812Z,676.7692
2023-05-19T05:23:03.225Z,686.6923
2023-05-19T05:24:04.657Z,690.0000
2023-05-19T05:25:06.010Z,688.4615
2023-05-19T05:26:07.537Z,690.3846
2023-05-19T05:27:08.898Z,679.3077
2023-05-19T05:28:10.380Z,677.9231
2023-05-19T05:29:11.747Z,692.2308
2023-05-19T05:30:13.242Z,690.9231
2023-05-19T05:31:14.565Z,692.2308
2023-05-19T05:32:16.104Z,688.6154
2023-05-19T05:33:17.626Z,686.0000
2023-05-19T05:34:18.895Z,692.1539
2023-05-19T05:35:20.397Z,692.2308
2023-05-19T05:36:21.740Z,694.2308
2023-05-19T05:37:23.174Z,688.9231
2023-05-19T05:38:24.615Z,698.1539
2023-05-19T05:39:25.995Z,702.9231
2023-05-19T05:40:27.428Z,697.7692
2023-05-19T05:41:28.801Z,690.1539
2023-05-19T05:42:30.388Z,696.3077
2023-05-19T05:43:31.737Z,691.3077
2023-05-19T05:44:33.128Z,701.5385
2023-05-19T05:45:34.711Z,692.3077
2023-05-19T05:46:35.865Z,699.6154
2023-05-19T05:47:37.389Z,704.6923
2023-05-19T05:48:38.890Z,707.6923
2023-05-19T05:49:40.154Z,704.6923
2023-05-19T05:50:41.613Z,711.0769
2023-05-19T05:51:48.456Z,706.6923
2023-05-19T05:52:44.530Z,706.3333
2023-05-19T05:53:45.919Z,705.5385
2023-05-19T05:54:47.395Z,705.3077
2023-05-19T05:55:48.771Z,704.3846
2023-05-19T05:56:50.226Z,712.6923
2023-05-19T05:57:51.593Z,709.8461
2023-05-19T05:58:53.036Z,714.4615
2023-05-19T05:59:54.445Z,707.9231
2023-05-19T06:00:55.832Z,722.6154
2023-05-19T06:01:57.248Z,713.5385
2023-05-19T06:02:58.882Z,717.4615
2023-05-19T06:04:00.141Z,717.6923
2023-05-19T06:05:01.613Z,718.2308
2023-05-19T06:06:03.010Z,722.6154
2023-05-19T06:07:04.337Z,739.4615
2023-05-19T06:08:05.874Z,749.0000
2023-05-19T06:09:07.256Z,757.9231
2023-05-19T06:10:08.581Z,772.3846
2023-05-19T06:11:10.058Z,795.3846
2023-05-19T06:12:11.470Z,775.7692
2023-05-19T06:13:13.019Z,790.6154
2023-05-19T06:14:14.335Z,794.0769
2023-05-19T06:15:15.776Z,809.9231
2023-05-19T06:16:17.208Z,814.0769
2023-05-19T06:17:18.602Z,833.7692
2023-05-19T06:18:20.054Z,865.0000
2023-05-19T06:19:21.460Z,895.6923
2023-05-19T06:20:22.887Z,912.3846
2023-05-19T06:21:24.248Z,920.8461
2023-05-19T06:22:25.709Z,919.6923
2023-05-19T06:23:27.168Z,926.3846
2023-05-19T06:24:28.635Z,944.9231
2023-05-19T06:25:29.968Z,950.0000
2023-05-19T06:26:31.283Z,978.3846
2023-05-19T06:27:34.644Z,986.7692
2023-05-19T06:28:34.245Z,1002.0769
2023-05-19T06:29:35.793Z,1023.2308
2023-05-19T06:30:37.160Z,1023.0000
2023-05-19T06:31:38.488Z,1031.2307
2023-05-19T06:32:40.044Z,1031.3077
2023-05-19T06:33:41.521Z,1039.3077
2023-05-19T06:34:42.943Z,1017.1539
2023-05-19T06:35:44.261Z,976.1539
2023-05-19T06:36:45.767Z,993.9231
2023-05-19T06:37:47.118Z,1030.3077
2023-05-19T06:38:49.398Z,1054.0769
2023-05-19T06:39:49.968Z,1070.2307
2023-05-19T06:40:51.409Z,1070.7693
2023-05-19T06:41:52.786Z,1020.1539
2023-05-19T06:42:54.115Z,1007.3077
2023-05-19T06:43:55.682Z,1035.2307
2023-05-19T06:44:57.097Z,1066.6154
2023-05-19T06:45:58.355Z,1066.8462
2023-05-19T06:46:59.892Z,1068.2307
2023-05-19T06:48:01.349Z,1085.3846
2023-05-19T06:49:02.756Z,1039.6923
2023-05-19T06:50:04.185Z,1024.3077
2023-05-19T06:51:05.834Z,1029.6923
2023-05-19T06:52:06.974Z,1034.4615
2023-05-19T06:53:08.419Z,1037.0000
2023-05-19T06:54:09.880Z,1088.4615
2023-05-19T06:55:11.906Z,1092.7693
2023-05-19T06:56:12.758Z,1035.1538
2023-05-19T06:57:14.105Z,1032.4615
2023-05-19T06:58:15.529Z,1044.7693
2023-05-19T06:59:17.044Z,1047.6154
2023-05-19T07:00:19.954Z,1057.9231
2023-05-19T07:01:19.793Z,1094.7693
2023-05-19T07:02:21.184Z,1106.9231
2023-05-19T07:03:22.805Z,1051.0769
2023-05-19T07:04:24.088Z,1051.6923
2023-05-19T07:05:26.449Z,1060.0000
2023-05-19T07:06:26.865Z,1082.3077
2023-05-19T07:07:28.240Z,1116.8462
2023-05-19T07:08:29.764Z,1140.9231
2023-05-19T07:09:31.227Z,1100.6154
2023-05-19T07:10:32.824Z,1056.9231
2023-05-19T07:11:33.973Z,1075.6154
2023-05-19T07:12:35.394Z,1079.4615
2023-05-19T07:13:36.868Z,1091.5385
2023-05-19T07:14:38.318Z,1130.0000
2023-05-19T07:15:39.782Z,1133.6923
2023-05-19T07:16:41.128Z,1061.8462
2023-05-19T07:17:42.570Z,1074.4615
2023-05-19T07:18:44.044Z,1095.2307
2023-05-19T07:19:45.381Z,1102.2307
2023-05-19T07:20:46.884Z,1127.0000
2023-05-19T07:21:48.258Z,1129.6923
2023-05-19T07:22:49.615Z,1060.6923
2023-05-19T07:23:51.076Z,1074.6923
2023-05-19T07:24:52.555Z,1104.6923
2023-05-19T07:25:54.415Z,1108.6923
2023-05-19T07:26:55.382Z,1117.5385
2023-05-19T07:27:56.777Z,1133.1538
2023-05-19T07:28:58.230Z,1073.3846
2023-05-19T07:29:59.617Z,1077.6923
2023-05-19T07:31:01.187Z,1103.3846
2023-05-19T07:32:02.567Z,1123.1538
2023-05-19T07:33:03.919Z,1128.4615
2023-05-19T07:34:05.330Z,1146.2307
2023-05-19T07:35:06.688Z,1096.2307
2023-05-19T07:36:08.210Z,1094.4615
2023-05-19T07:37:09.512Z,1141.6154
2023-05-19T07:38:11.091Z,1180.0769
2023-05-19T07:39:12.433Z,1199.5385
2023-05-19T07:40:13.865Z,1207.7693
2023-05-19T07:41:15.333Z,1121.0769
2023-05-19T07:42:16.642Z,1110.2307
2023-05-19T07:43:17.987Z,1148.3846
2023-05-19T07:44:19.538Z,1172.1538
2023-05-19T07:45:21.008Z,1183.4615
2023-05-19T07:46:22.550Z,1187.0000
